• Join FlightAware (Why Join?)
  • Login
  • US Flag 
12:24AM EDT


 

Airport Tracker/Info


-or-


 

Live Flight TrackerFlight Track Log ✈ SKW4664 ✈ 28-Apr-2013 ✈ KMSP - KFSD

Flight Track Log - Related Links

Times and Time Zones

All times are in EDT time to prevent confusion due to time zone crossing. See the SKW4664 flight status page for this flight to view local times or setup timezone preferences in your user account.

Time Position Orientation Groundspeed Altitude Reporting Facility
EDT Latitude Longitude Course Direction KTS MPH feet Rate Location/Type
10:36AM 44.8500 -93.2333 235° Southwest 139 160 1,900  Level Minneapolis TRACON
10:36AM 44.8314 -93.2394 193° South 154 177 3,100 1,980 Climbing Minneapolis Center
10:37AM 44.7856 -93.2908 219° Southwest 219 252 5,300 2,280 Climbing Minneapolis Center
10:39AM 44.6240 -93.7522 235° Southwest  Level FlightAware Approximate
10:39AM 44.7522 -93.3789 242° Southwest 263 303 7,800  Level Minneapolis Center
10:40AM 44.5494 -93.8788 230° Southwest  Level FlightAware Approximate
10:40AM 44.7108 -93.4942 243° Southwest 276 318 11,300  Level Minneapolis Center
10:41AM 44.4782 -94.0104 235° Southwest  Level FlightAware Approximate
10:41AM 44.6719 -93.5975 242° Southwest 307 353 13,500  Level Minneapolis Center
10:42AM 44.6314 -93.7119 244° Southwest 332 382 14,900 1,560 Climbing Minneapolis Center
10:43AM 44.5858 -93.8322 242° Southwest 350 403 16,800 1,800 Climbing Minneapolis Center
10:44AM 44.5297 -93.9469 236° Southwest 360 414 18,700 1,560 Climbing Minneapolis Center
10:45AM 44.4683 -94.0639 234° Southwest 370 426 20,000 1,200 Climbing Minneapolis Center
10:46AM 44.4058 -94.1839 234° Southwest 382 440 21,300 1,380 Climbing Minneapolis Center
10:47AM 44.3561 -94.3467 247° West 381 438 22,900 1,260 Climbing Minneapolis Center
10:48AM 44.3131 -94.4842 246° West 385 443 24,000 1,020 Climbing Minneapolis Center
10:49AM 44.2667 -94.6369 247° West 393 452 25,100 960 Climbing Minneapolis Center
10:50AM 44.2217 -94.7797 246° West 400 460 26,000 360 Climbing Minneapolis Center
10:51AM 44.1753 -94.9253 246° West 408 470 26,000  Level Minneapolis Center
10:52AM 44.1178 -95.1083 246° West 426 490 26,000  Level Minneapolis Center
10:53AM 44.0697 -95.2597 246° West 428 493 26,000 -420 Level Minneapolis Center
10:54AM 44.0306 -95.3800 246° West 426 490 25,200 -2,220 Descending Minneapolis Center
10:55AM 43.9747 -95.5533 246° West 411 473 21,500 -3,300 Descending Minneapolis Center
10:56AM 43.9317 -95.6867 246° West 384 442 18,500 -3,300 Descending Minneapolis Center
10:57AM 43.8817 -95.8389 246° West 363 418 14,800 -2,640 Descending Minneapolis Center
10:58AM 43.8422 -95.9597 246° West 346 398 13,100 -1,560 Descending Minneapolis Center
10:59AM 43.8078 -96.0647 246° West 306 352 11,700 -1,500 Descending Minneapolis Center
11:00AM 43.7756 -96.1636 246° West 288 331 10,100 -1,560 Descending Minneapolis Center
11:01AM 43.7439 -96.2597 246° West 280 322 8,600 -1,500 Descending Minneapolis Center
11:02AM 43.7131 -96.3528 245° Southwest 274 315 7,100 -1,380 Descending Minneapolis Center
11:03AM 43.6842 -96.4389 245° Southwest 263 303 5,800 -1,140 Descending Minneapolis Center
11:04AM 43.6750 -96.5208 261° West 239 275 4,800 -1,020 Descending Minneapolis Center
11:05AM 43.6669 -96.5975 262° West 215 247 3,800 -1,020 Descending Minneapolis Center